sensor_id;sensor_type;location;lat;lon;timestamp;pressure;altitude;pressure_sealevel;temperature;humidity
15294;BME280;7748;52.474;13.454;2023-01-25T00:00:44;103431.56;;;2.09;100.00
15294;BME280;7748;52.474;13.454;2023-01-25T00:03:11;103426.44;;;2.09;100.00
15294;BME280;7748;52.474;13.454;2023-01-25T00:05:39;103414.31;;;2.08;100.00
15294;BME280;7748;52.474;13.454;2023-01-25T00:08:08;103412.09;;;2.11;100.00
15294;BME280;7748;52.474;13.454;2023-01-25T00:10:36;103397.13;;;2.07;100.00
15294;BME280;7748;52.474;13.454;2023-01-25T00:13:04;103393.44;;;2.12;100.00
15294;BME280;7748;52.474;13.454;2023-01-25T00:15:32;103392.41;;;2.03;100.00
15294;BME280;7748;52.474;13.454;2023-01-25T00:17:59;103387.22;;;2.10;100.00
15294;BME280;7748;52.474;13.454;2023-01-25T00:20:27;103388.28;;;2.12;100.00
15294;BME280;7748;52.474;13.454;2023-01-25T00:22:55;103386.19;;;2.01;100.00
15294;BME280;7748;52.474;13.454;2023-01-25T00:25:24;103377.13;;;1.88;100.00
15294;BME280;7748;52.474;13.454;2023-01-25T00:27:52;103363.34;;;1.95;100.00
15294;BME280;7748;52.474;13.454;2023-01-25T00:30:19;103356.69;;;2.04;100.00
15294;BME280;7748;52.474;13.454;2023-01-25T00:32:53;103351.72;;;2.06;100.00
15294;BME280;7748;52.474;13.454;2023-01-25T00:35:29;103345.16;;;2.01;100.00
15294;BME280;7748;52.474;13.454;2023-01-25T00:38:00;103331.59;;;2.02;100.00
15294;BME280;7748;52.474;13.454;2023-01-25T00:40:30;103326.81;;;2.05;100.00
15294;BME280;7748;52.474;13.454;2023-01-25T00:42:58;103317.41;;;2.13;100.00
15294;BME280;7748;52.474;13.454;2023-01-25T00:45:27;103311.78;;;2.08;100.00
15294;BME280;7748;52.474;13.454;2023-01-25T00:47:55;103316.50;;;2.12;100.00
15294;BME280;7748;52.474;13.454;2023-01-25T00:50:23;103305.84;;;2.16;100.00
15294;BME280;7748;52.474;13.454;2023-01-25T00:52:50;103305.84;;;2.16;100.00
15294;BME280;7748;52.474;13.454;2023-01-25T00:55:18;103301.03;;;2.19;100.00
15294;BME280;7748;52.474;13.454;2023-01-25T00:57:47;103302.53;;;2.17;100.00
15294;BME280;7748;52.474;13.454;2023-01-25T01:00:16;103296.50;;;2.17;100.00
15294;BME280;7748;52.474;13.454;2023-01-25T01:02:43;103305.34;;;2.12;100.00
15294;BME280;7748;52.474;13.454;2023-01-25T01:05:11;103308.50;;;2.09;100.00
15294;BME280;7748;52.474;13.454;2023-01-25T01:07:39;103312.94;;;2.03;100.00
15294;BME280;7748;52.474;13.454;2023-01-25T01:10:07;103317.38;;;1.97;100.00
15294;BME280;7748;52.474;13.454;2023-01-25T01:12:35;103316.97;;;2.01;100.00
15294;BME280;7748;52.474;13.454;2023-01-25T01:15:06;103316.25;;;2.18;100.00
15294;BME280;7748;52.474;13.454;2023-01-25T01:17:34;103317.91;;;2.17;100.00
15294;BME280;7748;52.474;13.454;2023-01-25T01:20:03;103317.84;;;2.24;100.00
15294;BME280;7748;52.474;13.454;2023-01-25T01:22:30;103320.56;;;2.10;100.00
15294;BME280;7748;52.474;13.454;2023-01-25T01:24:58;103319.19;;;2.21;100.00
15294;BME280;7748;52.474;13.454;2023-01-25T01:27:26;103315.28;;;2.24;100.00
15294;BME280;7748;52.474;13.454;2023-01-25T01:29:54;103310.06;;;2.31;100.00
15294;BME280;7748;52.474;13.454;2023-01-25T01:32:23;103305.69;;;2.30;100.00
15294;BME280;7748;52.474;13.454;2023-01-25T01:34:51;103310.16;;;2.24;100.00
15294;BME280;7748;52.474;13.454;2023-01-25T01:37:19;103302.22;;;2.30;100.00
15294;BME280;7748;52.474;13.454;2023-01-25T01:39:46;103304.38;;;2.18;100.00
15294;BME280;7748;52.474;13.454;2023-01-25T01:42:14;103311.41;;;2.28;100.00
15294;BME280;7748;52.474;13.454;2023-01-25T01:44:44;103303.13;;;2.30;100.00
15294;BME280;7748;52.474;13.454;2023-01-25T01:47:16;103299.81;;;2.31;100.00
15294;BME280;7748;52.474;13.454;2023-01-25T01:49:50;103306.50;;;2.22;100.00
15294;BME280;7748;52.474;13.454;2023-01-25T01:52:22;103306.66;;;2.08;100.00
15294;BME280;7748;52.474;13.454;2023-01-25T01:54:54;103292.03;;;2.07;100.00
15294;BME280;7748;52.474;13.454;2023-01-25T01:57:26;103299.47;;;2.13;100.00
15294;BME280;7748;52.474;13.454;2023-01-25T01:59:59;103286.00;;;2.22;100.00
15294;BME280;7748;52.474;13.454;2023-01-25T02:02:29;103289.94;;;2.27;100.00
15294;BME280;7748;52.474;13.454;2023-01-25T02:05:00;103285.28;;;2.39;100.00
15294;BME280;7748;52.474;13.454;2023-01-25T02:07:33;103287.19;;;2.49;100.00
15294;BME280;7748;52.474;13.454;2023-01-25T02:10:01;103296.75;;;2.43;100.00
15294;BME280;7748;52.474;13.454;2023-01-25T02:12:30;103295.75;;;2.34;100.00
15294;BME280;7748;52.474;13.454;2023-01-25T02:14:58;103288.47;;;2.29;100.00
15294;BME280;7748;52.474;13.454;2023-01-25T02:17:28;103289.94;;;2.27;100.00
15294;BME280;7748;52.474;13.454;2023-01-25T02:20:00;103286.25;;;2.33;100.00
15294;BME280;7748;52.474;13.454;2023-01-25T02:22:34;103285.41;;;2.41;100.00
15294;BME280;7748;52.474;13.454;2023-01-25T02:25:07;103291.91;;;2.37;100.00
15294;BME280;7748;52.474;13.454;2023-01-25T02:27:38;103278.63;;;2.41;100.00
15294;BME280;7748;52.474;13.454;2023-01-25T02:30:09;103282.84;;;2.41;100.00
15294;BME280;7748;52.474;13.454;2023-01-25T02:32:37;103274.25;;;2.56;100.00
15294;BME280;7748;52.474;13.454;2023-01-25T02:35:06;103281.47;;;2.51;100.00
15294;BME280;7748;52.474;13.454;2023-01-25T02:37:35;103280.66;;;2.44;100.00
15294;BME280;7748;52.474;13.454;2023-01-25T02:40:03;103283.22;;;2.44;100.00
15294;BME280;7748;52.474;13.454;2023-01-25T02:42:33;103273.50;;;2.41;100.00
15294;BME280;7748;52.474;13.454;2023-01-25T02:45:01;103270.13;;;2.34;100.00
15294;BME280;7748;52.474;13.454;2023-01-25T02:47:32;103269.31;;;2.42;100.00
15294;BME280;7748;52.474;13.454;2023-01-25T02:50:00;103270.13;;;2.34;100.00
15294;BME280;7748;52.474;13.454;2023-01-25T02:52:28;103268.63;;;2.36;100.00
15294;BME280;7748;52.474;13.454;2023-01-25T02:54:56;103268.63;;;2.36;100.00
15294;BME280;7748;52.474;13.454;2023-01-25T02:57:24;103261.03;;;2.28;100.00
15294;BME280;7748;52.474;13.454;2023-01-25T02:59:53;103259.94;;;2.26;100.00
15294;BME280;7748;52.474;13.454;2023-01-25T03:02:20;103258.84;;;2.24;100.00
15294;BME280;7748;52.474;13.454;2023-01-25T03:04:48;103261.09;;;2.21;100.00
15294;BME280;7748;52.474;13.454;2023-01-25T03:07:16;103261.34;;;2.31;100.00
15294;BME280;7748;52.474;13.454;2023-01-25T03:09:44;103256.69;;;2.20;100.00
15294;BME280;7748;52.474;13.454;2023-01-25T03:12:12;103261.50;;;2.17;100.00
15294;BME280;7748;52.474;13.454;2023-01-25T03:14:40;103253.56;;;2.07;100.00
15294;BME280;7748;52.474;13.454;2023-01-25T03:17:11;103252.06;;;2.25;100.00
15294;BME280;7748;52.474;13.454;2023-01-25T03:19:38;103251.47;;;2.27;100.00
15294;BME280;7748;52.474;13.454;2023-01-25T03:22:06;103243.56;;;2.33;100.00
15294;BME280;7748;52.474;13.454;2023-01-25T03:24:35;103239.84;;;2.38;100.00
15294;BME280;7748;52.474;13.454;2023-01-25T03:27:03;103243.22;;;2.46;100.00
15294;BME280;7748;52.474;13.454;2023-01-25T03:29:39;103238.84;;;2.45;100.00
15294;BME280;7748;52.474;13.454;2023-01-25T03:32:07;103243.25;;;2.30;100.00
15294;BME280;7748;52.474;13.454;2023-01-25T03:34:37;103229.97;;;2.34;100.00
15294;BME280;7748;52.474;13.454;2023-01-25T03:37:05;103235.38;;;2.28;100.00
15294;BME280;7748;52.474;13.454;2023-01-25T03:39:32;103233.22;;;2.24;100.00
15294;BME280;7748;52.474;13.454;2023-01-25T03:42:00;103232.22;;;2.15;100.00
15294;BME280;7748;52.474;13.454;2023-01-25T03:44:28;103227.28;;;2.33;100.00
15294;BME280;7748;52.474;13.454;2023-01-25T03:46:56;103229.94;;;2.25;100.00
15294;BME280;7748;52.474;13.454;2023-01-25T03:49:24;103232.13;;;2.06;100.00
15294;BME280;7748;52.474;13.454;2023-01-25T03:51:54;103228.41;;;1.96;100.00
15294;BME280;7748;52.474;13.454;2023-01-25T03:54:23;103222.53;;;1.97;100.00
15294;BME280;7748;52.474;13.454;2023-01-25T03:56:51;103217.50;;;2.05;100.00
15294;BME280;7748;52.474;13.454;2023-01-25T03:59:19;103217.00;;;2.01;100.00
15294;BME280;7748;52.474;13.454;2023-01-25T04:01:46;103221.25;;;2.16;100.00
15294;BME280;7748;52.474;13.454;2023-01-25T04:04:15;103209.41;;;2.25;100.00
15294;BME280;7748;52.474;13.454;2023-01-25T04:06:43;103200.13;;;2.35;100.00
15294;BME280;7748;52.474;13.454;2023-01-25T04:09:12;103198.31;;;2.34;100.00
15294;BME280;7748;52.474;13.454;2023-01-25T04:11:40;103187.47;;;2.36;100.00
15294;BME280;7748;52.474;13.454;2023-01-25T04:14:09;103182.72;;;2.48;100.00
15294;BME280;7748;52.474;13.454;2023-01-25T04:16:37;103176.03;;;2.41;100.00
15294;BME280;7748;52.474;13.454;2023-01-25T04:19:05;103173.41;;;2.33;100.00
15294;BME280;7748;52.474;13.454;2023-01-25T04:21:32;103172.47;;;2.48;100.00
15294;BME280;7748;52.474;13.454;2023-01-25T04:24:00;103169.00;;;2.47;100.00
15294;BME280;7748;52.474;13.454;2023-01-25T04:26:29;103163.28;;;2.50;100.00
15294;BME280;7748;52.474;13.454;2023-01-25T04:28:57;103165.75;;;2.57;100.00
15294;BME280;7748;52.474;13.454;2023-01-25T04:31:25;103155.94;;;2.53;100.00
15294;BME280;7748;52.474;13.454;2023-01-25T04:33:54;103151.41;;;2.59;100.00
15294;BME280;7748;52.474;13.454;2023-01-25T04:36:22;103147.00;;;2.74;100.00
15294;BME280;7748;52.474;13.454;2023-01-25T04:38:50;103144.47;;;2.58;100.00
15294;BME280;7748;52.474;13.454;2023-01-25T04:41:17;103150.53;;;2.59;100.00
15294;BME280;7748;52.474;13.454;2023-01-25T04:43:47;103153.25;;;2.60;100.00
15294;BME280;7748;52.474;13.454;2023-01-25T04:46:15;103144.47;;;2.58;100.00
15294;BME280;7748;52.474;13.454;2023-01-25T04:48:43;103147.66;;;2.64;100.00
15294;BME280;7748;52.474;13.454;2023-01-25T04:51:10;103149.94;;;2.61;100.00
15294;BME280;7748;52.474;13.454;2023-01-25T04:53:39;103142.72;;;2.66;100.00
15294;BME280;7748;52.474;13.454;2023-01-25T04:56:08;103141.50;;;2.62;100.00
15294;BME280;7748;52.474;13.454;2023-01-25T04:58:36;103142.13;;;2.68;100.00
15294;BME280;7748;52.474;13.454;2023-01-25T05:01:05;103128.69;;;2.71;100.00
15294;BME280;7748;52.474;13.454;2023-01-25T05:03:33;103132.28;;;2.64;100.00
15294;BME280;7748;52.474;13.454;2023-01-25T05:06:01;103127.91;;;2.63;100.00
15294;BME280;7748;52.474;13.454;2023-01-25T05:08:29;103123.19;;;2.59;100.00
15294;BME280;7748;52.474;13.454;2023-01-25T05:10:57;103127.31;;;2.66;100.00
15294;BME280;7748;52.474;13.454;2023-01-25T05:13:24;103130.59;;;2.56;100.00
15294;BME280;7748;52.474;13.454;2023-01-25T05:15:54;103124.56;;;2.64;100.00
15294;BME280;7748;52.474;13.454;2023-01-25T05:18:25;103122.00;;;2.64;100.00
15294;BME280;7748;52.474;13.454;2023-01-25T05:21:04;103121.28;;;2.65;100.00
15294;BME280;7748;52.474;13.454;2023-01-25T05:23:52;103113.81;;;2.51;100.00
15294;BME280;7748;52.474;13.454;2023-01-25T05:26:20;103115.66;;;2.61;100.00
15294;BME280;7748;52.474;13.454;2023-01-25T05:29:02;103115.59;;;2.52;100.00
15294;BME280;7748;52.474;13.454;2023-01-25T05:31:29;103116.69;;;2.54;100.00
15294;BME280;7748;52.474;13.454;2023-01-25T05:33:59;103116.56;;;2.61;100.00
15294;BME280;7748;52.474;13.454;2023-01-25T05:36:26;103119.44;;;2.64;100.00
15294;BME280;7748;52.474;13.454;2023-01-25T05:38:54;103109.63;;;2.60;100.00
15294;BME280;7748;52.474;13.454;2023-01-25T05:41:22;103119.72;;;2.59;100.00
15294;BME280;7748;52.474;13.454;2023-01-25T05:43:50;103118.84;;;2.67;100.00
15294;BME280;7748;52.474;13.454;2023-01-25T05:46:17;103120.22;;;2.63;100.00
15294;BME280;7748;52.474;13.454;2023-01-25T05:48:46;103124.75;;;2.66;100.00
15294;BME280;7748;52.474;13.454;2023-01-25T05:51:15;103123.69;;;2.64;100.00
15294;BME280;7748;52.474;13.454;2023-01-25T05:53:44;103125.50;;;2.65;100.00
15294;BME280;7748;52.474;13.454;2023-01-25T05:56:12;103123.09;;;2.66;100.00
15294;BME280;7748;52.474;13.454;2023-01-25T05:58:39;103123.81;;;2.41;100.00
15294;BME280;7748;52.474;13.454;2023-01-25T06:01:07;103118.09;;;2.43;100.00
15294;BME280;7748;52.474;13.454;2023-01-25T06:03:35;103115.28;;;2.49;100.00
15294;BME280;7748;52.474;13.454;2023-01-25T06:06:03;103105.44;;;2.45;100.00
15294;BME280;7748;52.474;13.454;2023-01-25T06:08:34;103103.38;;;2.49;100.00
15294;BME280;7748;52.474;13.454;2023-01-25T06:11:05;103110.06;;;2.56;100.00
15294;BME280;7748;52.474;13.454;2023-01-25T06:13:34;103095.50;;;2.48;100.00
15294;BME280;7748;52.474;13.454;2023-01-25T06:16:01;103100.53;;;2.55;100.00
15294;BME280;7748;52.474;13.454;2023-01-25T06:18:31;103101.69;;;2.50;100.00
15294;BME280;7748;52.474;13.454;2023-01-25T06:21:01;103092.19;;;2.49;100.00
15294;BME280;7748;52.474;13.454;2023-01-25T06:23:29;103097.06;;;2.55;100.00
15294;BME280;7748;52.474;13.454;2023-01-25T06:25:59;103094.66;;;2.56;100.00
15294;BME280;7748;52.474;13.454;2023-01-25T06:28:29;103087.06;;;2.49;100.00
15294;BME280;7748;52.474;13.454;2023-01-25T06:31:03;103080.97;;;2.64;100.00
15294;BME280;7748;52.474;13.454;2023-01-25T06:33:32;103088.34;;;2.61;100.00
15294;BME280;7748;52.474;13.454;2023-01-25T06:36:00;103087.16;;;2.66;100.00
15294;BME280;7748;52.474;13.454;2023-01-25T06:38:29;103097.44;;;2.66;100.00
15294;BME280;7748;52.474;13.454;2023-01-25T06:41:02;103099.88;;;2.73;100.00
15294;BME280;7748;52.474;13.454;2023-01-25T06:43:32;103097.13;;;2.63;100.00
15294;BME280;7748;52.474;13.454;2023-01-25T06:46:02;103089.84;;;2.59;100.00
15294;BME280;7748;52.474;13.454;2023-01-25T06:48:31;103095.63;;;2.65;100.00
15294;BME280;7748;52.474;13.454;2023-01-25T06:51:01;103091.56;;;2.67;100.00
15294;BME280;7748;52.474;13.454;2023-01-25T06:53:31;103084.94;;;2.69;100.00
15294;BME280;7748;52.474;13.454;2023-01-25T06:56:03;103076.53;;;2.55;100.00
15294;BME280;7748;52.474;13.454;2023-01-25T06:58:32;103070.38;;;2.61;100.00
15294;BME280;7748;52.474;13.454;2023-01-25T07:01:01;103068.84;;;2.55;100.00
15294;BME280;7748;52.474;13.454;2023-01-25T07:03:30;103067.28;;;2.48;100.00
15294;BME280;7748;52.474;13.454;2023-01-25T07:05:58;103062.81;;;2.54;100.00
15294;BME280;7748;52.474;13.454;2023-01-25T07:08:27;103057.25;;;2.58;100.00
15294;BME280;7748;52.474;13.454;2023-01-25T07:10:55;103066.88;;;2.52;100.00
15294;BME280;7748;52.474;13.454;2023-01-25T07:13:25;103063.22;;;2.50;100.00
15294;BME280;7748;52.474;13.454;2023-01-25T07:15:55;103057.97;;;2.48;100.00
15294;BME280;7748;52.474;13.454;2023-01-25T07:18:23;103059.94;;;2.51;100.00
15294;BME280;7748;52.474;13.454;2023-01-25T07:20:52;103067.72;;;2.44;100.00
15294;BME280;7748;52.474;13.454;2023-01-25T07:23:19;103060.03;;;2.44;100.00
15294;BME280;7748;52.474;13.454;2023-01-25T07:25:48;103053.50;;;2.39;100.00
15294;BME280;7748;52.474;13.454;2023-01-25T07:28:16;103050.81;;;2.46;100.00
15294;BME280;7748;52.474;13.454;2023-01-25T07:30:46;103051.03;;;2.56;100.00
15294;BME280;7748;52.474;13.454;2023-01-25T07:33:14;103048.16;;;2.53;100.00
15294;BME280;7748;52.474;13.454;2023-01-25T07:35:42;103053.56;;;2.47;100.00
15294;BME280;7748;52.474;13.454;2023-01-25T07:38:10;103033.34;;;2.50;100.00
15294;BME280;7748;52.474;13.454;2023-01-25T07:40:40;103032.13;;;2.47;100.00
15294;BME280;7748;52.474;13.454;2023-01-25T07:43:08;103035.66;;;2.56;100.00
15294;BME280;7748;52.474;13.454;2023-01-25T07:45:36;103033.28;;;2.66;100.00
15294;BME280;7748;52.474;13.454;2023-01-25T07:48:08;103027.66;;;2.62;100.00
15294;BME280;7748;52.474;13.454;2023-01-25T07:50:37;103023.41;;;2.53;100.00
15294;BME280;7748;52.474;13.454;2023-01-25T07:53:06;103033.69;;;2.53;100.00
15294;BME280;7748;52.474;13.454;2023-01-25T07:55:34;103030.94;;;2.52;100.00
15294;BME280;7748;52.474;13.454;2023-01-25T07:58:02;103022.50;;;2.53;100.00
15294;BME280;7748;52.474;13.454;2023-01-25T08:00:30;103022.19;;;2.50;100.00
15294;BME280;7748;52.474;13.454;2023-01-25T08:02:58;103018.28;;;2.53;100.00
15294;BME280;7748;52.474;13.454;2023-01-25T08:05:27;103016.78;;;2.56;100.00
15294;BME280;7748;52.474;13.454;2023-01-25T08:07:55;103017.25;;;2.60;100.00
15294;BME280;7748;52.474;13.454;2023-01-25T08:10:23;103014.34;;;2.57;100.00
15294;BME280;7748;52.474;13.454;2023-01-25T08:12:51;103007.53;;;2.49;100.00
15294;BME280;7748;52.474;13.454;2023-01-25T08:15:18;103008.50;;;2.58;100.00
15294;BME280;7748;52.474;13.454;2023-01-25T08:17:46;102995.13;;;2.69;100.00
15294;BME280;7748;52.474;13.454;2023-01-25T08:20:14;102999.59;;;2.63;100.00
15294;BME280;7748;52.474;13.454;2023-01-25T08:22:44;102999.09;;;2.50;100.00
15294;BME280;7748;52.474;13.454;2023-01-25T08:25:11;103000.16;;;2.52;100.00
15294;BME280;7748;52.474;13.454;2023-01-25T08:27:50;103000.47;;;2.55;100.00
15294;BME280;7748;52.474;13.454;2023-01-25T08:30:22;102999.44;;;2.53;100.00
15294;BME280;7748;52.474;13.454;2023-01-25T08:32:50;102988.41;;;2.54;100.00
15294;BME280;7748;52.474;13.454;2023-01-25T08:35:18;102998.06;;;2.57;100.00
15294;BME280;7748;52.474;13.454;2023-01-25T08:37:47;102995.97;;;2.61;100.00
15294;BME280;7748;52.474;13.454;2023-01-25T08:40:15;103000.81;;;2.67;100.00
15294;BME280;7748;52.474;13.454;2023-01-25T08:42:43;102989.97;;;2.69;100.00
15294;BME280;7748;52.474;13.454;2023-01-25T08:45:11;102994.19;;;2.60;100.00
15294;BME280;7748;52.474;13.454;2023-01-25T08:47:39;102991.78;;;2.70;100.00
15294;BME280;7748;52.474;13.454;2023-01-25T08:50:07;102983.91;;;2.60;100.00
15294;BME280;7748;52.474;13.454;2023-01-25T08:52:36;102986.00;;;2.64;100.00
15294;BME280;7748;52.474;13.454;2023-01-25T08:55:05;102984.38;;;2.65;100.00
15294;BME280;7748;52.474;13.454;2023-01-25T08:57:33;102989.03;;;2.60;100.00
15294;BME280;7748;52.474;13.454;2023-01-25T09:00:02;102982.84;;;2.58;100.00
15294;BME280;7748;52.474;13.454;2023-01-25T09:02:31;102994.59;;;2.56;100.00
15294;BME280;7748;52.474;13.454;2023-01-25T09:04:59;102996.63;;;2.67;100.00
15294;BME280;7748;52.474;13.454;2023-01-25T09:07:27;102991.75;;;2.62;100.00
15294;BME280;7748;52.474;13.454;2023-01-25T09:09:57;102986.78;;;2.63;100.00
15294;BME280;7748;52.474;13.454;2023-01-25T09:12:27;102993.25;;;2.60;100.00
15294;BME280;7748;52.474;13.454;2023-01-25T09:14:55;102986.91;;;2.56;100.00
15294;BME280;7748;52.474;13.454;2023-01-25T09:17:23;102981.47;;;2.62;100.00
15294;BME280;7748;52.474;13.454;2023-01-25T09:19:50;102982.25;;;2.61;100.00
15294;BME280;7748;52.474;13.454;2023-01-25T09:22:18;102988.44;;;2.71;100.00
15294;BME280;7748;52.474;13.454;2023-01-25T09:24:46;102986.91;;;2.56;100.00
15294;BME280;7748;52.474;13.454;2023-01-25T09:27:19;102980.41;;;2.60;100.00
15294;BME280;7748;52.474;13.454;2023-01-25T09:29:49;102988.41;;;2.54;100.00
15294;BME280;7748;52.474;13.454;2023-01-25T09:32:27;102979.94;;;2.46;100.00
15294;BME280;7748;52.474;13.454;2023-01-25T09:34:55;102977.97;;;2.44;100.00
15294;BME280;7748;52.474;13.454;2023-01-25T09:37:23;102975.75;;;2.56;100.00
15294;BME280;7748;52.474;13.454;2023-01-25T09:39:51;102972.38;;;2.48;100.00
15294;BME280;7748;52.474;13.454;2023-01-25T09:42:35;102968.84;;;2.39;100.00
15294;BME280;7748;52.474;13.454;2023-01-25T09:45:21;102969.91;;;2.41;100.00
15294;BME280;7748;52.474;13.454;2023-01-25T09:47:54;102964.66;;;2.48;100.00
15294;BME280;7748;52.474;13.454;2023-01-25T09:50:34;102969.38;;;2.52;100.00
15294;BME280;7748;52.474;13.454;2023-01-25T09:53:19;102960.84;;;2.36;100.00
15294;BME280;7748;52.474;13.454;2023-01-25T09:55:50;102956.38;;;2.42;100.00
15294;BME280;7748;52.474;13.454;2023-01-25T09:58:23;102963.59;;;2.46;100.00
15294;BME280;7748;52.474;13.454;2023-01-25T10:01:04;102963.78;;;2.47;100.00
15294;BME280;7748;52.474;13.454;2023-01-25T10:03:45;102956.84;;;2.55;100.00
15294;BME280;7748;52.474;13.454;2023-01-25T10:06:15;102950.81;;;2.55;100.00
15294;BME280;7748;52.474;13.454;2023-01-25T10:08:51;102950.91;;;2.39;100.00
15294;BME280;7748;52.474;13.454;2023-01-25T10:11:24;102951.78;;;2.30;100.00
15294;BME280;7748;52.474;13.454;2023-01-25T10:13:53;102947.91;;;2.43;100.00
15294;BME280;7748;52.474;13.454;2023-01-25T10:16:27;102940.84;;;2.49;100.00
15294;BME280;7748;52.474;13.454;2023-01-25T10:19:13;102940.09;;;2.50;100.00
15294;BME280;7748;52.474;13.454;2023-01-25T10:21:49;102942.50;;;2.48;100.00
15294;BME280;7748;52.474;13.454;2023-01-25T10:24:56;102935.88;;;2.59;100.00
15294;BME280;7748;52.474;13.454;2023-01-25T10:27:37;102923.31;;;2.45;100.00
15294;BME280;7748;52.474;13.454;2023-01-25T10:30:25;102922.25;;;2.43;100.00
15294;BME280;7748;52.474;13.454;2023-01-25T10:32:57;102911.72;;;2.57;100.00
15294;BME280;7748;52.474;13.454;2023-01-25T10:35:29;102909.31;;;2.50;100.00
15294;BME280;7748;52.474;13.454;2023-01-25T10:38:13;102899.97;;;2.59;100.00
15294;BME280;7748;52.474;13.454;2023-01-25T10:40:45;102910.22;;;2.59;100.00
15294;BME280;7748;52.474;13.454;2023-01-25T10:43:17;102900.53;;;2.48;100.00
15294;BME280;7748;52.474;13.454;2023-01-25T10:45:47;102889.69;;;2.50;100.00
15294;BME280;7748;52.474;13.454;2023-01-25T10:48:19;102899.47;;;2.46;100.00
15294;BME280;7748;52.474;13.454;2023-01-25T10:50:51;102895.22;;;2.38;100.00
15294;BME280;7748;52.474;13.454;2023-01-25T10:53:24;102897.38;;;2.42;100.00
15294;BME280;7748;52.474;13.454;2023-01-25T10:56:12;102889.03;;;2.36;100.00
15294;BME280;7748;52.474;13.454;2023-01-25T10:58:46;102880.91;;;2.40;100.00
15294;BME280;7748;52.474;13.454;2023-01-25T11:01:24;102883.16;;;2.37;100.00
15294;BME280;7748;52.474;13.454;2023-01-25T11:03:55;102880.16;;;2.41;100.00
15294;BME280;7748;52.474;13.454;2023-01-25T11:06:34;102878.50;;;2.50;100.00
15294;BME280;7748;52.474;13.454;2023-01-25T11:09:29;102866.72;;;2.43;100.00
15294;BME280;7748;52.474;13.454;2023-01-25T11:11:58;102862.81;;;2.47;100.00
15294;BME280;7748;52.474;13.454;2023-01-25T11:14:28;102855.59;;;2.51;100.00
15294;BME280;7748;52.474;13.454;2023-01-25T11:16:58;102853.03;;;2.51;100.00
15294;BME280;7748;52.474;13.454;2023-01-25T11:19:32;102853.19;;;2.53;100.00
15294;BME280;7748;52.474;13.454;2023-01-25T11:22:02;102846.44;;;2.62;100.00
15294;BME280;7748;52.474;13.454;2023-01-25T11:24:31;102843.84;;;2.62;100.00
15294;BME280;7748;52.474;13.454;2023-01-25T11:27:16;102833.25;;;2.59;100.00
15294;BME280;7748;52.474;13.454;2023-01-25T11:29:45;102829.97;;;2.60;100.00
15294;BME280;7748;52.474;13.454;2023-01-25T11:32:25;102831.13;;;2.55;100.00
15294;BME280;7748;52.474;13.454;2023-01-25T11:34:55;102818.19;;;2.53;100.00
15294;BME280;7748;52.474;13.454;2023-01-25T11:37:34;102800.97;;;2.44;100.00
15294;BME280;7748;52.474;13.454;2023-01-25T11:40:17;102799.16;;;2.51;100.00
15294;BME280;7748;52.474;13.454;2023-01-25T11:42:53;102798.84;;;2.57;100.00
15294;BME280;7748;52.474;13.454;2023-01-25T11:45:49;102799.44;;;2.55;100.00
15294;BME280;7748;52.474;13.454;2023-01-25T11:48:36;102795.06;;;2.45;100.00
15294;BME280;7748;52.474;13.454;2023-01-25T11:51:19;102781.81;;;2.49;100.00
15294;BME280;7748;52.474;13.454;2023-01-25T11:54:03;102779.53;;;2.52;100.00
15294;BME280;7748;52.474;13.454;2023-01-25T11:56:43;102768.53;;;2.53;100.00
15294;BME280;7748;52.474;13.454;2023-01-25T11:59:30;102759.31;;;2.38;100.00
15294;BME280;7748;52.474;13.454;2023-01-25T12:02:14;102757.66;;;2.47;100.00
15294;BME280;7748;52.474;13.454;2023-01-25T12:04:56;102754.19;;;2.46;100.00
15294;BME280;7748;52.474;13.454;2023-01-25T12:07:50;102735.31;;;2.37;100.00
15294;BME280;7748;52.474;13.454;2023-01-25T12:10:32;102733.66;;;2.38;100.00
15294;BME280;7748;52.474;13.454;2023-01-25T12:13:11;102727.03;;;2.40;100.00
15294;BME280;7748;52.474;13.454;2023-01-25T12:16:02;102727.59;;;2.46;100.00
15294;BME280;7748;52.474;13.454;2023-01-25T12:19:01;102724.28;;;2.38;100.00
15294;BME280;7748;52.474;13.454;2023-01-25T12:21:45;102710.59;;;2.46;100.00
15294;BME280;7748;52.474;13.454;2023-01-25T12:24:33;102709.81;;;2.30;100.00
15294;BME280;7748;52.474;13.454;2023-01-25T12:27:16;102705.88;;;2.34;100.00
15294;BME280;7748;52.474;13.454;2023-01-25T12:29:49;102695.03;;;2.45;100.00
15294;BME280;7748;52.474;13.454;2023-01-25T12:32:25;102694.75;;;2.42;100.00
15294;BME280;7748;52.474;13.454;2023-01-25T12:35:03;102682.06;;;2.52;100.00
15294;BME280;7748;52.474;13.454;2023-01-25T12:37:41;102687.78;;;2.58;100.00
15294;BME280;7748;52.474;13.454;2023-01-25T12:40:16;102682.94;;;2.52;100.00
15294;BME280;7748;52.474;13.454;2023-01-25T12:42:49;102676.31;;;2.55;100.00
15294;BME280;7748;52.474;13.454;2023-01-25T12:45:23;102675.41;;;2.54;100.00
15294;BME280;7748;52.474;13.454;2023-01-25T12:47:55;102684.63;;;2.35;100.00
15294;BME280;7748;52.474;13.454;2023-01-25T12:50:30;102674.50;;;2.27;100.00
15294;BME280;7748;52.474;13.454;2023-01-25T12:53:04;102676.63;;;2.31;100.00
15294;BME280;7748;52.474;13.454;2023-01-25T12:55:35;102664.56;;;2.39;100.00
15294;BME280;7748;52.474;13.454;2023-01-25T12:58:07;102657.31;;;2.35;100.00
15294;BME280;7748;52.474;13.454;2023-01-25T13:00:49;102657.31;;;2.44;100.00
15294;BME280;7748;52.474;13.454;2023-01-25T13:03:28;102658.34;;;2.46;100.00
15294;BME280;7748;52.474;13.454;2023-01-25T13:06:04;102657.91;;;2.41;100.00
15294;BME280;7748;52.474;13.454;2023-01-25T13:08:38;102661.06;;;2.39;100.00
15294;BME280;7748;52.474;13.454;2023-01-25T13:11:13;102659.13;;;2.27;100.00